sensor_id;sensor_type;location;lat;lon;timestamp;temperature;humidity
21834;DHT22;11079;51.092;3.458;2023-12-20T00:01:56;7.80;99.90
21834;DHT22;11079;51.092;3.458;2023-12-20T00:04:47;7.60;99.90
21834;DHT22;11079;51.092;3.458;2023-12-20T00:07:19;7.70;99.90
21834;DHT22;11079;51.092;3.458;2023-12-20T00:09:55;7.80;99.90
21834;DHT22;11079;51.092;3.458;2023-12-20T00:12:24;7.90;99.90
21834;DHT22;11079;51.092;3.458;2023-12-20T00:15:00;8.00;99.90
21834;DHT22;11079;51.092;3.458;2023-12-20T00:17:46;7.80;99.90
21834;DHT22;11079;51.092;3.458;2023-12-20T00:20:56;7.90;99.90
21834;DHT22;11079;51.092;3.458;2023-12-20T00:23:29;7.90;99.90
21834;DHT22;11079;51.092;3.458;2023-12-20T00:26:00;7.80;99.90
21834;DHT22;11079;51.092;3.458;2023-12-20T00:28:35;7.70;99.90
21834;DHT22;11079;51.092;3.458;2023-12-20T00:31:34;7.70;99.90
21834;DHT22;11079;51.092;3.458;2023-12-20T00:34:42;7.80;99.90
21834;DHT22;11079;51.092;3.458;2023-12-20T00:37:31;7.60;99.90
21834;DHT22;11079;51.092;3.458;2023-12-20T00:40:01;7.60;99.90
21834;DHT22;11079;51.092;3.458;2023-12-20T00:43:17;7.50;99.90
21834;DHT22;11079;51.092;3.458;2023-12-20T00:46:01;7.60;99.90
21834;DHT22;11079;51.092;3.458;2023-12-20T00:48:55;7.50;99.90
21834;DHT22;11079;51.092;3.458;2023-12-20T00:51:49;7.60;99.90
21834;DHT22;11079;51.092;3.458;2023-12-20T00:54:21;7.70;99.90
21834;DHT22;11079;51.092;3.458;2023-12-20T00:57:17;7.80;99.90
21834;DHT22;11079;51.092;3.458;2023-12-20T01:00:36;7.80;99.90
21834;DHT22;11079;51.092;3.458;2023-12-20T01:03:14;7.70;99.90
21834;DHT22;11079;51.092;3.458;2023-12-20T01:05:42;7.60;99.90
21834;DHT22;11079;51.092;3.458;2023-12-20T01:08:31;7.70;99.90
21834;DHT22;11079;51.092;3.458;2023-12-20T01:11:05;7.60;99.90
21834;DHT22;11079;51.092;3.458;2023-12-20T01:14:09;7.80;99.90
21834;DHT22;11079;51.092;3.458;2023-12-20T01:16:54;7.80;99.90
21834;DHT22;11079;51.092;3.458;2023-12-20T01:19:32;7.90;99.90
21834;DHT22;11079;51.092;3.458;2023-12-20T01:22:12;7.90;99.90
21834;DHT22;11079;51.092;3.458;2023-12-20T01:25:16;7.90;99.90
21834;DHT22;11079;51.092;3.458;2023-12-20T01:27:46;8.00;99.90
21834;DHT22;11079;51.092;3.458;2023-12-20T01:30:37;8.00;99.90
21834;DHT22;11079;51.092;3.458;2023-12-20T01:41:10;7.90;99.90
21834;DHT22;11079;51.092;3.458;2023-12-20T01:44:15;7.90;99.90
21834;DHT22;11079;51.092;3.458;2023-12-20T01:47:13;8.10;99.90
21834;DHT22;11079;51.092;3.458;2023-12-20T01:50:14;8.00;99.90
21834;DHT22;11079;51.092;3.458;2023-12-20T01:53:38;8.10;99.90
21834;DHT22;11079;51.092;3.458;2023-12-20T01:56:27;8.20;99.90
21834;DHT22;11079;51.092;3.458;2023-12-20T01:59:20;8.20;99.90
21834;DHT22;11079;51.092;3.458;2023-12-20T02:02:22;8.00;99.90
21834;DHT22;11079;51.092;3.458;2023-12-20T02:05:14;8.10;99.90
21834;DHT22;11079;51.092;3.458;2023-12-20T02:08:03;8.10;99.90
21834;DHT22;11079;51.092;3.458;2023-12-20T02:10:57;8.20;99.90
21834;DHT22;11079;51.092;3.458;2023-12-20T02:13:46;8.30;99.90
21834;DHT22;11079;51.092;3.458;2023-12-20T02:16:13;8.40;99.90
21834;DHT22;11079;51.092;3.458;2023-12-20T02:18:51;8.40;99.90
21834;DHT22;11079;51.092;3.458;2023-12-20T02:21:38;8.50;99.90
21834;DHT22;11079;51.092;3.458;2023-12-20T02:24:08;8.50;99.90
21834;DHT22;11079;51.092;3.458;2023-12-20T02:27:02;8.50;99.90
21834;DHT22;11079;51.092;3.458;2023-12-20T02:30:16;8.40;99.90
21834;DHT22;11079;51.092;3.458;2023-12-20T02:32:55;8.40;99.90
21834;DHT22;11079;51.092;3.458;2023-12-20T02:36:06;8.40;99.90
21834;DHT22;11079;51.092;3.458;2023-12-20T02:38:53;8.30;99.90
21834;DHT22;11079;51.092;3.458;2023-12-20T02:41:19;8.50;99.90
21834;DHT22;11079;51.092;3.458;2023-12-20T02:47:06;8.50;99.90
21834;DHT22;11079;51.092;3.458;2023-12-20T02:49:37;8.50;99.90
21834;DHT22;11079;51.092;3.458;2023-12-20T02:52:04;8.50;99.90
21834;DHT22;11079;51.092;3.458;2023-12-20T02:54:55;8.60;99.90
21834;DHT22;11079;51.092;3.458;2023-12-20T02:57:21;8.60;99.90
21834;DHT22;11079;51.092;3.458;2023-12-20T02:59:52;8.60;99.90
21834;DHT22;11079;51.092;3.458;2023-12-20T03:02:36;8.60;99.90
21834;DHT22;11079;51.092;3.458;2023-12-20T03:05:30;8.50;99.90
21834;DHT22;11079;51.092;3.458;2023-12-20T03:08:24;8.50;99.90
21834;DHT22;11079;51.092;3.458;2023-12-20T03:10:55;8.50;99.90
21834;DHT22;11079;51.092;3.458;2023-12-20T03:13:25;8.60;99.90
21834;DHT22;11079;51.092;3.458;2023-12-20T03:16:17;8.50;99.90
21834;DHT22;11079;51.092;3.458;2023-12-20T03:19:12;8.40;99.90
21834;DHT22;11079;51.092;3.458;2023-12-20T03:21:39;8.40;99.90
21834;DHT22;11079;51.092;3.458;2023-12-20T03:24:47;8.50;99.90
21834;DHT22;11079;51.092;3.458;2023-12-20T03:27:27;8.50;99.90
21834;DHT22;11079;51.092;3.458;2023-12-20T03:29:53;8.50;99.90
21834;DHT22;11079;51.092;3.458;2023-12-20T03:32:23;8.50;99.90
21834;DHT22;11079;51.092;3.458;2023-12-20T03:34:51;8.60;99.90
21834;DHT22;11079;51.092;3.458;2023-12-20T03:37:19;8.50;99.90
21834;DHT22;11079;51.092;3.458;2023-12-20T03:39:45;8.60;99.90
21834;DHT22;11079;51.092;3.458;2023-12-20T03:42:12;8.60;99.90
21834;DHT22;11079;51.092;3.458;2023-12-20T03:44:41;8.70;99.90
21834;DHT22;11079;51.092;3.458;2023-12-20T03:50:29;8.50;99.90
21834;DHT22;11079;51.092;3.458;2023-12-20T03:56:27;8.50;99.90
21834;DHT22;11079;51.092;3.458;2023-12-20T03:59:22;8.60;99.90
21834;DHT22;11079;51.092;3.458;2023-12-20T04:02:19;8.50;99.90
21834;DHT22;11079;51.092;3.458;2023-12-20T04:04:47;8.60;99.90
21834;DHT22;11079;51.092;3.458;2023-12-20T04:07:18;8.70;99.90
21834;DHT22;11079;51.092;3.458;2023-12-20T04:10:04;8.70;99.90
21834;DHT22;11079;51.092;3.458;2023-12-20T04:12:33;8.60;99.90
21834;DHT22;11079;51.092;3.458;2023-12-20T04:14:59;8.60;99.90
21834;DHT22;11079;51.092;3.458;2023-12-20T04:17:30;8.50;99.90
21834;DHT22;11079;51.092;3.458;2023-12-20T04:19:56;8.50;99.90
21834;DHT22;11079;51.092;3.458;2023-12-20T04:22:25;8.30;99.90
21834;DHT22;11079;51.092;3.458;2023-12-20T04:24:52;8.20;99.90
21834;DHT22;11079;51.092;3.458;2023-12-20T04:27:19;8.10;99.90
21834;DHT22;11079;51.092;3.458;2023-12-20T04:29:45;7.90;99.90
21834;DHT22;11079;51.092;3.458;2023-12-20T04:32:29;7.80;99.90
21834;DHT22;11079;51.092;3.458;2023-12-20T04:34:56;7.80;99.90
21834;DHT22;11079;51.092;3.458;2023-12-20T04:37:43;7.70;99.90
21834;DHT22;11079;51.092;3.458;2023-12-20T04:40:27;7.60;99.90
21834;DHT22;11079;51.092;3.458;2023-12-20T04:42:57;7.60;99.90
21834;DHT22;11079;51.092;3.458;2023-12-20T04:45:36;7.60;99.90
21834;DHT22;11079;51.092;3.458;2023-12-20T04:48:07;7.50;99.90
21834;DHT22;11079;51.092;3.458;2023-12-20T04:50:58;7.40;99.90
21834;DHT22;11079;51.092;3.458;2023-12-20T04:53:25;7.50;99.90
21834;DHT22;11079;51.092;3.458;2023-12-20T04:56:01;7.50;99.90
21834;DHT22;11079;51.092;3.458;2023-12-20T04:58:47;7.50;99.90
21834;DHT22;11079;51.092;3.458;2023-12-20T05:01:54;7.60;99.90
21834;DHT22;11079;51.092;3.458;2023-12-20T05:04:20;7.60;99.90
21834;DHT22;11079;51.092;3.458;2023-12-20T05:07:06;7.70;99.90
21834;DHT22;11079;51.092;3.458;2023-12-20T05:09:58;7.70;99.90
21834;DHT22;11079;51.092;3.458;2023-12-20T05:12:31;7.70;99.90
21834;DHT22;11079;51.092;3.458;2023-12-20T05:15:21;7.60;99.90
21834;DHT22;11079;51.092;3.458;2023-12-20T05:18:07;7.70;99.90
21834;DHT22;11079;51.092;3.458;2023-12-20T05:20:36;7.60;99.90
21834;DHT22;11079;51.092;3.458;2023-12-20T05:23:04;7.60;99.90
21834;DHT22;11079;51.092;3.458;2023-12-20T05:25:32;7.80;99.90
21834;DHT22;11079;51.092;3.458;2023-12-20T05:28:00;7.90;99.90
21834;DHT22;11079;51.092;3.458;2023-12-20T05:30:29;7.90;99.90
21834;DHT22;11079;51.092;3.458;2023-12-20T05:32:55;7.70;99.90
21834;DHT22;11079;51.092;3.458;2023-12-20T05:35:25;7.70;99.90
21834;DHT22;11079;51.092;3.458;2023-12-20T05:37:51;7.80;99.90
21834;DHT22;11079;51.092;3.458;2023-12-20T05:40:19;7.70;99.90
21834;DHT22;11079;51.092;3.458;2023-12-20T05:42:58;7.70;99.90
21834;DHT22;11079;51.092;3.458;2023-12-20T05:45:25;7.70;99.90
21834;DHT22;11079;51.092;3.458;2023-12-20T05:47:56;7.60;99.90
21834;DHT22;11079;51.092;3.458;2023-12-20T05:50:34;7.50;99.90
21834;DHT22;11079;51.092;3.458;2023-12-20T05:53:19;7.40;99.90
21834;DHT22;11079;51.092;3.458;2023-12-20T05:55:46;7.30;99.90
21834;DHT22;11079;51.092;3.458;2023-12-20T05:58:13;7.20;99.90
21834;DHT22;11079;51.092;3.458;2023-12-20T06:00:47;7.20;99.90
21834;DHT22;11079;51.092;3.458;2023-12-20T06:03:20;7.30;99.90
21834;DHT22;11079;51.092;3.458;2023-12-20T06:05:47;7.20;99.90
21834;DHT22;11079;51.092;3.458;2023-12-20T06:08:16;7.20;99.90
21834;DHT22;11079;51.092;3.458;2023-12-20T06:10:44;7.20;99.90
21834;DHT22;11079;51.092;3.458;2023-12-20T06:13:30;7.20;99.90
21834;DHT22;11079;51.092;3.458;2023-12-20T06:16:21;7.10;99.90
21834;DHT22;11079;51.092;3.458;2023-12-20T06:18:50;7.10;99.90
21834;DHT22;11079;51.092;3.458;2023-12-20T06:21:16;7.10;99.90
21834;DHT22;11079;51.092;3.458;2023-12-20T06:24:11;7.10;99.90
21834;DHT22;11079;51.092;3.458;2023-12-20T06:26:39;7.10;99.90
21834;DHT22;11079;51.092;3.458;2023-12-20T06:29:26;6.90;99.90
21834;DHT22;11079;51.092;3.458;2023-12-20T06:32:44;7.00;99.90
21834;DHT22;11079;51.092;3.458;2023-12-20T06:35:12;6.90;99.90
21834;DHT22;11079;51.092;3.458;2023-12-20T06:37:58;6.90;99.90
21834;DHT22;11079;51.092;3.458;2023-12-20T06:40:49;6.90;99.90
21834;DHT22;11079;51.092;3.458;2023-12-20T06:43:47;6.80;99.90
21834;DHT22;11079;51.092;3.458;2023-12-20T06:46:29;6.70;99.90
21834;DHT22;11079;51.092;3.458;2023-12-20T06:48:55;6.70;99.90
21834;DHT22;11079;51.092;3.458;2023-12-20T06:51:25;6.70;99.90
21834;DHT22;11079;51.092;3.458;2023-12-20T06:54:14;6.70;99.90
21834;DHT22;11079;51.092;3.458;2023-12-20T06:56:56;6.50;99.90
21834;DHT22;11079;51.092;3.458;2023-12-20T06:59:42;6.50;99.90
21834;DHT22;11079;51.092;3.458;2023-12-20T07:02:29;6.50;99.90
21834;DHT22;11079;51.092;3.458;2023-12-20T07:04:59;6.40;99.90
21834;DHT22;11079;51.092;3.458;2023-12-20T07:08:09;6.50;99.90
21834;DHT22;11079;51.092;3.458;2023-12-20T07:10:49;6.40;99.90
21834;DHT22;11079;51.092;3.458;2023-12-20T07:14:00;6.40;99.90
21834;DHT22;11079;51.092;3.458;2023-12-20T07:16:56;6.60;99.90
21834;DHT22;11079;51.092;3.458;2023-12-20T07:19:22;6.50;99.90
21834;DHT22;11079;51.092;3.458;2023-12-20T07:21:48;6.50;99.90
21834;DHT22;11079;51.092;3.458;2023-12-20T07:24:22;6.60;99.90
21834;DHT22;11079;51.092;3.458;2023-12-20T07:26:51;6.60;99.90
21834;DHT22;11079;51.092;3.458;2023-12-20T07:29:17;6.50;99.90
21834;DHT22;11079;51.092;3.458;2023-12-20T07:31:43;6.40;99.90
21834;DHT22;11079;51.092;3.458;2023-12-20T07:34:08;6.40;99.90
21834;DHT22;11079;51.092;3.458;2023-12-20T07:36:34;6.40;99.90
21834;DHT22;11079;51.092;3.458;2023-12-20T07:39:00;6.50;99.90
21834;DHT22;11079;51.092;3.458;2023-12-20T07:41:25;6.50;99.90
21834;DHT22;11079;51.092;3.458;2023-12-20T07:43:57;6.60;99.90
21834;DHT22;11079;51.092;3.458;2023-12-20T07:46:23;6.50;99.90
21834;DHT22;11079;51.092;3.458;2023-12-20T07:48:49;6.30;99.90
21834;DHT22;11079;51.092;3.458;2023-12-20T07:51:14;6.40;99.90
21834;DHT22;11079;51.092;3.458;2023-12-20T07:53:42;6.50;99.90
21834;DHT22;11079;51.092;3.458;2023-12-20T07:56:17;6.40;99.90
21834;DHT22;11079;51.092;3.458;2023-12-20T07:59:02;6.20;99.90
21834;DHT22;11079;51.092;3.458;2023-12-20T08:01:27;6.40;99.90
21834;DHT22;11079;51.092;3.458;2023-12-20T08:07:21;6.50;99.90
21834;DHT22;11079;51.092;3.458;2023-12-20T08:12:28;6.60;99.90
21834;DHT22;11079;51.092;3.458;2023-12-20T08:15:06;6.70;99.90
21834;DHT22;11079;51.092;3.458;2023-12-20T08:17:50;6.60;99.90
21834;DHT22;11079;51.092;3.458;2023-12-20T08:20:19;6.70;99.90
21834;DHT22;11079;51.092;3.458;2023-12-20T08:23:16;6.70;99.90
21834;DHT22;11079;51.092;3.458;2023-12-20T08:29:06;7.30;99.90
21834;DHT22;11079;51.092;3.458;2023-12-20T08:31:32;7.50;99.90
21834;DHT22;11079;51.092;3.458;2023-12-20T08:34:00;7.90;99.90
21834;DHT22;11079;51.092;3.458;2023-12-20T08:36:26;8.40;99.90
21834;DHT22;11079;51.092;3.458;2023-12-20T08:38:52;8.70;99.90
21834;DHT22;11079;51.092;3.458;2023-12-20T08:41:19;9.10;99.90
21834;DHT22;11079;51.092;3.458;2023-12-20T08:43:46;9.70;99.90
21834;DHT22;11079;51.092;3.458;2023-12-20T08:46:16;10.10;99.90
21834;DHT22;11079;51.092;3.458;2023-12-20T08:48:42;10.20;99.90
21834;DHT22;11079;51.092;3.458;2023-12-20T08:51:29;10.30;99.90
21834;DHT22;11079;51.092;3.458;2023-12-20T08:53:56;10.10;99.90
21834;DHT22;11079;51.092;3.458;2023-12-20T08:56:22;10.00;99.90
21834;DHT22;11079;51.092;3.458;2023-12-20T08:58:50;10.00;99.90
21834;DHT22;11079;51.092;3.458;2023-12-20T09:01:22;9.80;99.90
21834;DHT22;11079;51.092;3.458;2023-12-20T09:03:48;9.40;99.90
21834;DHT22;11079;51.092;3.458;2023-12-20T09:06:14;9.30;99.90
21834;DHT22;11079;51.092;3.458;2023-12-20T09:08:39;9.00;99.90
21834;DHT22;11079;51.092;3.458;2023-12-20T09:11:06;8.90;99.90
21834;DHT22;11079;51.092;3.458;2023-12-20T09:13:31;8.80;99.90
21834;DHT22;11079;51.092;3.458;2023-12-20T09:15:57;8.80;99.90
21834;DHT22;11079;51.092;3.458;2023-12-20T09:18:23;8.60;99.90
21834;DHT22;11079;51.092;3.458;2023-12-20T09:20:49;9.10;99.90
21834;DHT22;11079;51.092;3.458;2023-12-20T09:23:14;10.30;99.90
21834;DHT22;11079;51.092;3.458;2023-12-20T09:25:40;11.00;99.90
21834;DHT22;11079;51.092;3.458;2023-12-20T09:28:06;10.80;99.90
21834;DHT22;11079;51.092;3.458;2023-12-20T09:30:31;11.00;99.90
21834;DHT22;11079;51.092;3.458;2023-12-20T09:32:57;11.00;99.90
21834;DHT22;11079;51.092;3.458;2023-12-20T09:35:23;10.90;99.90
21834;DHT22;11079;51.092;3.458;2023-12-20T09:37:49;10.20;99.90
21834;DHT22;11079;51.092;3.458;2023-12-20T09:40:18;9.60;99.90
21834;DHT22;11079;51.092;3.458;2023-12-20T09:45:20;9.30;99.90
21834;DHT22;11079;51.092;3.458;2023-12-20T09:47:52;9.10;99.90
21834;DHT22;11079;51.092;3.458;2023-12-20T09:50:20;9.00;99.90
21834;DHT22;11079;51.092;3.458;2023-12-20T09:52:50;9.00;99.90
21834;DHT22;11079;51.092;3.458;2023-12-20T09:55:17;9.00;99.90
21834;DHT22;11079;51.092;3.458;2023-12-20T09:57:44;8.90;99.90
21834;DHT22;11079;51.092;3.458;2023-12-20T10:00:11;8.90;99.90
21834;DHT22;11079;51.092;3.458;2023-12-20T10:02:39;8.80;99.90
21834;DHT22;11079;51.092;3.458;2023-12-20T10:05:08;8.90;99.90
21834;DHT22;11079;51.092;3.458;2023-12-20T10:07:39;8.90;99.90
21834;DHT22;11079;51.092;3.458;2023-12-20T10:10:06;9.00;99.90
21834;DHT22;11079;51.092;3.458;2023-12-20T10:12:37;8.90;99.90
21834;DHT22;11079;51.092;3.458;2023-12-20T10:15:05;8.80;99.90
21834;DHT22;11079;51.092;3.458;2023-12-20T10:18:26;8.80;99.90
21834;DHT22;11079;51.092;3.458;2023-12-20T10:21:15;8.90;99.90
21834;DHT22;11079;51.092;3.458;2023-12-20T10:24:09;9.10;99.90
21834;DHT22;11079;51.092;3.458;2023-12-20T10:27:07;9.10;99.90
21834;DHT22;11079;51.092;3.458;2023-12-20T10:29:36;9.00;99.90
21834;DHT22;11079;51.092;3.458;2023-12-20T10:32:27;9.00;99.90
21834;DHT22;11079;51.092;3.458;2023-12-20T10:34:54;9.00;99.90
21834;DHT22;11079;51.092;3.458;2023-12-20T10:37:21;9.00;99.90
21834;DHT22;11079;51.092;3.458;2023-12-20T10:39:52;9.10;99.90
21834;DHT22;11079;51.092;3.458;2023-12-20T10:42:24;9.10;99.90
21834;DHT22;11079;51.092;3.458;2023-12-20T10:44:58;9.20;99.90
21834;DHT22;11079;51.092;3.458;2023-12-20T10:47:37;9.20;99.90
21834;DHT22;11079;51.092;3.458;2023-12-20T10:50:05;9.10;99.90
21834;DHT22;11079;51.092;3.458;2023-12-20T10:52:38;9.30;99.90
21834;DHT22;11079;51.092;3.458;2023-12-20T10:55:04;9.50;99.90
21834;DHT22;11079;51.092;3.458;2023-12-20T10:57:42;9.40;99.90
21834;DHT22;11079;51.092;3.458;2023-12-20T11:00:11;9.60;99.90
21834;DHT22;11079;51.092;3.458;2023-12-20T11:02:40;9.60;99.90
21834;DHT22;11079;51.092;3.458;2023-12-20T11:08:10;9.90;99.90
21834;DHT22;11079;51.092;3.458;2023-12-20T11:11:08;9.90;99.90
21834;DHT22;11079;51.092;3.458;2023-12-20T11:13:47;10.00;99.90
21834;DHT22;11079;51.092;3.458;2023-12-20T11:16:14;9.90;99.90
21834;DHT22;11079;51.092;3.458;2023-12-20T11:18:44;10.00;99.90
21834;DHT22;11079;51.092;3.458;2023-12-20T11:21:11;9.90;99.90
21834;DHT22;11079;51.092;3.458;2023-12-20T11:23:53;10.10;99.90
21834;DHT22;11079;51.092;3.458;2023-12-20T11:26:37;10.00;99.90
21834;DHT22;11079;51.092;3.458;2023-12-20T11:31:54;10.00;99.90
21834;DHT22;11079;51.092;3.458;2023-12-20T11:34:31;10.00;99.90
21834;DHT22;11079;51.092;3.458;2023-12-20T11:36:58;10.10;99.90
21834;DHT22;11079;51.092;3.458;2023-12-20T11:39:28;10.10;99.90
21834;DHT22;11079;51.092;3.458;2023-12-20T11:44:31;10.10;99.90
21834;DHT22;11079;51.092;3.458;2023-12-20T11:46:58;10.10;99.90
21834;DHT22;11079;51.092;3.458;2023-12-20T11:49:24;10.10;99.90
21834;DHT22;11079;51.092;3.458;2023-12-20T11:51:50;10.00;99.90
21834;DHT22;11079;51.092;3.458;2023-12-20T11:54:19;10.00;99.90
21834;DHT22;11079;51.092;3.458;2023-12-20T11:56:45;10.10;99.90
21834;DHT22;11079;51.092;3.458;2023-12-20T11:59:17;10.10;99.90
21834;DHT22;11079;51.092;3.458;2023-12-20T12:01:51;10.00;99.90
21834;DHT22;11079;51.092;3.458;2023-12-20T12:04:26;9.90;99.90
21834;DHT22;11079;51.092;3.458;2023-12-20T12:06:52;9.90;99.90
21834;DHT22;11079;51.092;3.458;2023-12-20T12:09:18;9.80;99.90
21834;DHT22;11079;51.092;3.458;2023-12-20T12:11:43;10.00;99.90
21834;DHT22;11079;51.092;3.458;2023-12-20T12:14:10;10.00;99.90
21834;DHT22;11079;51.092;3.458;2023-12-20T12:16:36;10.10;99.90
21834;DHT22;11079;51.092;3.458;2023-12-20T12:19:05;10.10;99.90
21834;DHT22;11079;51.092;3.458;2023-12-20T12:21:31;10.10;99.90
21834;DHT22;11079;51.092;3.458;2023-12-20T12:24:07;10.20;99.90
21834;DHT22;11079;51.092;3.458;2023-12-20T12:26:33;10.30;99.90
21834;DHT22;11079;51.092;3.458;2023-12-20T12:28:59;10.30;99.90
21834;DHT22;11079;51.092;3.458;2023-12-20T12:31:25;10.30;99.90
21834;DHT22;11079;51.092;3.458;2023-12-20T12:33:52;10.50;99.90
21834;DHT22;11079;51.092;3.458;2023-12-20T12:36:19;10.60;99.90
21834;DHT22;11079;51.092;3.458;2023-12-20T12:38:44;10.70;99.90
21834;DHT22;11079;51.092;3.458;2023-12-20T12:41:13;10.90;99.90
21834;DHT22;11079;51.092;3.458;2023-12-20T12:43:38;11.10;99.90
21834;DHT22;11079;51.092;3.458;2023-12-20T12:46:04;11.40;99.90
21834;DHT22;11079;51.092;3.458;2023-12-20T12:48:30;11.50;99.90
21834;DHT22;11079;51.092;3.458;2023-12-20T12:50:56;11.50;99.90
21834;DHT22;11079;51.092;3.458;2023-12-20T12:53:25;11.60;99.90
21834;DHT22;11079;51.092;3.458;2023-12-20T12:55:53;11.80;99.90
21834;DHT22;11079;51.092;3.458;2023-12-20T12:58:20;12.00;99.90
21834;DHT22;11079;51.092;3.458;2023-12-20T13:00:45;12.00;99.90
21834;DHT22;11079;51.092;3.458;2023-12-20T13:03:11;11.80;99.90
21834;DHT22;11079;51.092;3.458;2023-12-20T13:05:37;11.70;99.90
21834;DHT22;11079;51.092;3.458;2023-12-20T13:08:03;11.70;99.90
21834;DHT22;11079;51.092;3.458;2023-12-20T13:10:29;11.40;99.90
21834;DHT22;11079;51.092;3.458;2023-12-20T13:12:55;11.40;99.90
21834;DHT22;11079;51.092;3.458;2023-12-20T13:15:21;11.10;99.90
21834;DHT22;11079;51.092;3.458;2023-12-20T13:17:47;10.90;99.90
21834;DHT22;11079;51.092;3.458;2023-12-20T13:20:16;10.90;99.90
21834;DHT22;11079;51.092;3.458;2023-12-20T13:22:42;10.70;99.90
21834;DHT22;11079;51.092;3.458;2023-12-20T13:25:09;10.90;99.90
21834;DHT22;11079;51.092;3.458;2023-12-20T13:27:37;10.90;99.90
21834;DHT22;11079;51.092;3.458;2023-12-20T13:30:06;10.90;99.90
21834;DHT22;11079;51.092;3.458;2023-12-20T13:32:32;10.90;99.90
21834;DHT22;11079;51.092;3.458;2023-12-20T13:34:58;10.90;99.90
21834;DHT22;11079;51.092;3.458;2023-12-20T13:37:24;10.80;99.90
21834;DHT22;11079;51.092;3.458;2023-12-20T13:39:50;10.80;99.90
21834;DHT22;11079;51.092;3.458;2023-12-20T13:42:15;10.90;99.90
21834;DHT22;11079;51.092;3.458;2023-12-20T13:44:41;10.90;99.90
21834;DHT22;11079;51.092;3.458;2023-12-20T13:47:07;10.80;99.90
21834;DHT22;11079;51.092;3.458;2023-12-20T13:49:33;10.70;99.90
21834;DHT22;11079;51.092;3.458;2023-12-20T13:51:59;10.70;99.90
21834;DHT22;11079;51.092;3.458;2023-12-20T13:54:24;10.70;99.90
21834;DHT22;11079;51.092;3.458;2023-12-20T13:56:50;10.80;99.90
21834;DHT22;11079;51.092;3.458;2023-12-20T13:59:17;10.90;99.90
21834;DHT22;11079;51.092;3.458;2023-12-20T14:01:43;10.90;99.90
21834;DHT22;11079;51.092;3.458;2023-12-20T14:04:10;10.90;99.90
21834;DHT22;11079;51.092;3.458;2023-12-20T14:06:37;10.80;99.90
21834;DHT22;11079;51.092;3.458;2023-12-20T14:09:03;10.70;99.90
21834;DHT22;11079;51.092;3.458;2023-12-20T14:11:29;10.70;99.90
21834;DHT22;11079;51.092;3.458;2023-12-20T14:13:54;10.90;99.90
21834;DHT22;11079;51.092;3.458;2023-12-20T14:16:24;11.00;99.90
21834;DHT22;11079;51.092;3.458;2023-12-20T14:18:49;11.00;99.90
21834;DHT22;11079;51.092;3.458;2023-12-20T14:21:17;10.90;99.90
21834;DHT22;11079;51.092;3.458;2023-12-20T14:23:45;10.80;99.90
21834;DHT22;11079;51.092;3.458;2023-12-20T14:26:11;10.80;99.90
21834;DHT22;11079;51.092;3.458;2023-12-20T14:28:41;10.80;99.90
21834;DHT22;11079;51.092;3.458;2023-12-20T14:31:07;10.90;99.90
21834;DHT22;11079;51.092;3.458;2023-12-20T14:33:34;10.80;99.90
21834;DHT22;11079;51.092;3.458;2023-12-20T14:36:00;10.70;99.90
21834;DHT22;11079;51.092;3.458;2023-12-20T14:38:25;10.60;99.90
21834;DHT22;11079;51.092;3.458;2023-12-20T14:40:51;10.60;99.90
21834;DHT22;11079;51.092;3.458;2023-12-20T14:43:17;10.50;99.90
21834;DHT22;11079;51.092;3.458;2023-12-20T14:45:43;10.50;99.90
21834;DHT22;11079;51.092;3.458;2023-12-20T14:48:09;10.50;99.90
21834;DHT22;11079;51.092;3.458;2023-12-20T14:50:34;10.40;99.90
21834;DHT22;11079;51.092;3.458;2023-12-20T14:53:02;10.50;99.90
21834;DHT22;11079;51.092;3.458;2023-12-20T14:55:27;10.50;99.90
21834;DHT22;11079;51.092;3.458;2023-12-20T14:57:55;10.50;99.90
21834;DHT22;11079;51.092;3.458;2023-12-20T15:00:20;10.40;99.90
21834;DHT22;11079;51.092;3.458;2023-12-20T15:02:46;10.30;99.90
21834;DHT22;11079;51.092;3.458;2023-12-20T15:05:12;10.20;99.90
21834;DHT22;11079;51.092;3.458;2023-12-20T15:07:39;10.20;99.90
21834;DHT22;11079;51.092;3.458;2023-12-20T15:10:05;10.30;99.90
21834;DHT22;11079;51.092;3.458;2023-12-20T15:12:31;10.30;99.90
21834;DHT22;11079;51.092;3.458;2023-12-20T15:14:59;10.30;99.90
21834;DHT22;11079;51.092;3.458;2023-12-20T15:17:25;10.30;99.90
21834;DHT22;11079;51.092;3.458;2023-12-20T15:19:51;10.30;99.90
21834;DHT22;11079;51.092;3.458;2023-12-20T15:22:17;10.30;99.90
21834;DHT22;11079;51.092;3.458;2023-12-20T15:24:42;10.40;99.90
21834;DHT22;11079;51.092;3.458;2023-12-20T15:27:09;10.30;99.90
21834;DHT22;11079;51.092;3.458;2023-12-20T15:29:35;10.30;99.90
21834;DHT22;11079;51.092;3.458;2023-12-20T15:32:01;10.20;99.90
21834;DHT22;11079;51.092;3.458;2023-12-20T15:34:29;10.30;99.90
21834;DHT22;11079;51.092;3.458;2023-12-20T15:36:55;10.40;99.90
21834;DHT22;11079;51.092;3.458;2023-12-20T15:39:21;10.40;99.90
21834;DHT22;11079;51.092;3.458;2023-12-20T15:41:46;10.40;99.90
21834;DHT22;11079;51.092;3.458;2023-12-20T15:44:12;10.40;99.90
21834;DHT22;11079;51.092;3.458;2023-12-20T15:46:38;10.30;99.90
21834;DHT22;11079;51.092;3.458;2023-12-20T15:49:04;10.30;99.90
21834;DHT22;11079;51.092;3.458;2023-12-20T15:51:30;10.30;99.90
21834;DHT22;11079;51.092;3.458;2023-12-20T15:53:56;10.20;99.90
21834;DHT22;11079;51.092;3.458;2023-12-20T15:56:22;10.30;99.90
21834;DHT22;11079;51.092;3.458;2023-12-20T15:58:48;10.40;99.90
21834;DHT22;11079;51.092;3.458;2023-12-20T16:01:14;10.30;99.90
21834;DHT22;11079;51.092;3.458;2023-12-20T16:03:39;10.30;99.90
21834;DHT22;11079;51.092;3.458;2023-12-20T16:06:05;10.20;99.90
21834;DHT22;11079;51.092;3.458;2023-12-20T16:08:31;10.10;99.90
21834;DHT22;11079;51.092;3.458;2023-12-20T16:10:57;10.20;99.90
21834;DHT22;11079;51.092;3.458;2023-12-20T16:13:23;10.10;99.90
21834;DHT22;11079;51.092;3.458;2023-12-20T16:15:49;10.10;99.90
21834;DHT22;11079;51.092;3.458;2023-12-20T16:18:14;10.00;99.90
21834;DHT22;11079;51.092;3.458;2023-12-20T16:20:40;10.10;99.90
21834;DHT22;11079;51.092;3.458;2023-12-20T16:23:06;10.20;99.90
21834;DHT22;11079;51.092;3.458;2023-12-20T16:25:32;10.30;99.90
21834;DHT22;11079;51.092;3.458;2023-12-20T16:27:58;10.20;99.90
21834;DHT22;11079;51.092;3.458;2023-12-20T16:30:23;10.10;99.90
21834;DHT22;11079;51.092;3.458;2023-12-20T16:32:49;10.10;99.90
21834;DHT22;11079;51.092;3.458;2023-12-20T16:35:16;10.10;99.90
21834;DHT22;11079;51.092;3.458;2023-12-20T16:37:42;10.10;99.90
21834;DHT22;11079;51.092;3.458;2023-12-20T16:40:08;10.00;99.90
21834;DHT22;11079;51.092;3.458;2023-12-20T16:42:34;10.00;99.90
21834;DHT22;11079;51.092;3.458;2023-12-20T16:45:00;10.00;99.90
21834;DHT22;11079;51.092;3.458;2023-12-20T16:47:29;10.00;99.90
21834;DHT22;11079;51.092;3.458;2023-12-20T16:49:54;10.00;99.90
21834;DHT22;11079;51.092;3.458;2023-12-20T16:52:20;10.10;99.90
21834;DHT22;11079;51.092;3.458;2023-12-20T16:54:46;10.10;99.90
21834;DHT22;11079;51.092;3.458;2023-12-20T16:57:13;10.10;99.90
21834;DHT22;11079;51.092;3.458;2023-12-20T16:59:42;10.00;99.90